createdAt,value
2018-09-18T00:01:38.075Z,95785.73
2018-09-18T00:04:07.558Z,95784.17
2018-09-18T00:06:37.161Z,95787.86
2018-09-18T00:09:09.083Z,95786.05
2018-09-18T00:11:39.006Z,95792.63
2018-09-18T00:14:08.949Z,95786.81
2018-09-18T00:16:38.702Z,95787.58
2018-09-18T00:19:08.061Z,95791.48
2018-09-18T00:21:37.684Z,95785.39
2018-09-18T00:24:07.625Z,95784.63
2018-09-18T00:26:37.282Z,95785.18
2018-09-18T00:29:06.969Z,95786.53
2018-09-18T00:31:36.851Z,95780.75
2018-09-18T00:34:06.330Z,95786.30
2018-09-18T00:36:35.923Z,95782.11
2018-09-18T00:39:07.318Z,95781.03
2018-09-18T00:41:37.026Z,95785.83
2018-09-18T00:44:06.694Z,95780.53
2018-09-18T00:46:36.749Z,95791.89
2018-09-18T00:49:06.626Z,95786.91
2018-09-18T00:51:36.214Z,95776.56
2018-09-18T00:54:05.983Z,95781.31
2018-09-18T00:56:35.658Z,95775.77
2018-09-18T00:59:05.238Z,95777.12
2018-09-18T01:01:35.009Z,95776.56
2018-09-18T01:04:04.603Z,95778.44
2018-09-18T01:06:34.214Z,95777.95
2018-09-18T01:09:04.338Z,95774.78
2018-09-18T01:11:33.941Z,95774.49
2018-09-18T01:14:03.639Z,95774.50
2018-09-18T01:16:33.556Z,95777.66
2018-09-18T01:19:03.034Z,95785.32
2018-09-18T01:21:32.930Z,95782.45
2018-09-18T01:24:02.714Z,95775.84
2018-09-18T01:26:32.381Z,95784.07
2018-09-18T01:29:01.899Z,95793.61
2018-09-18T01:31:31.818Z,95785.11
2018-09-18T01:34:01.252Z,95786.73
2018-09-18T01:36:30.754Z,95780.64
2018-09-18T01:39:00.750Z,95778.77
2018-09-18T01:41:30.207Z,95781.73
2018-09-18T01:43:59.675Z,95782.80
2018-09-18T01:46:29.307Z,95777.50
2018-09-18T01:48:58.826Z,95777.49
2018-09-18T01:51:28.295Z,95777.27
2018-09-18T01:53:58.133Z,95777.55
2018-09-18T01:56:27.927Z,95779.14
2018-09-18T01:58:57.388Z,95781.77
2018-09-18T02:01:27.096Z,95777.27
2018-09-18T02:03:56.583Z,95774.36
2018-09-18T02:06:26.074Z,95777.79
2018-09-18T02:08:55.763Z,95771.73
2018-09-18T02:11:25.263Z,95774.38
2018-09-18T02:13:54.889Z,95777.57
2018-09-18T02:16:24.661Z,95782.04
2018-09-18T02:18:54.219Z,95782.04
2018-09-18T02:21:23.944Z,95783.38
2018-09-18T02:23:53.618Z,95776.50
2018-09-18T02:26:22.999Z,95780.47
2018-09-18T02:28:52.701Z,95783.12
2018-09-18T02:31:22.421Z,95783.64
2018-09-18T02:33:52.150Z,95784.16
2018-09-18T02:36:21.858Z,95784.96
2018-09-18T02:38:51.823Z,95783.63
2018-09-18T02:41:21.469Z,95783.91
2018-09-18T02:43:50.986Z,95787.09
2018-09-18T02:46:20.989Z,95789.20
2018-09-18T02:48:50.502Z,95784.17
2018-09-18T02:51:20.127Z,95788.14
2018-09-18T02:53:50.163Z,95785.50
2018-09-18T02:56:19.859Z,95787.06
2018-09-18T02:58:49.459Z,95785.50
2018-09-18T03:01:19.475Z,95784.71
2018-09-18T03:03:48.768Z,95786.82
2018-09-18T03:06:18.192Z,95787.05
2018-09-18T03:08:47.730Z,95785.45
2018-09-18T03:11:17.541Z,95788.88
2018-09-18T03:13:47.359Z,95787.55
2018-09-18T03:16:17.157Z,95786.76
2018-09-18T03:18:46.616Z,95790.46
2018-09-18T03:21:16.654Z,95789.66
2018-09-18T03:23:46.241Z,95786.22
2018-09-18T03:26:16.104Z,95789.16
2018-09-18T03:28:46.106Z,95785.45
2018-09-18T03:31:15.910Z,95795.20
2018-09-18T03:33:45.263Z,95795.21
2018-09-18T03:36:14.916Z,95791.79
2018-09-18T03:38:44.862Z,95797.59
2018-09-18T03:41:14.634Z,95792.31
2018-09-18T03:43:44.459Z,95794.41
2018-09-18T03:46:14.707Z,95793.61
2018-09-18T03:48:44.485Z,95802.06
2018-09-18T03:51:13.995Z,95809.44
2018-09-18T03:53:43.491Z,95804.70
2018-09-18T03:56:12.927Z,95733.83
2018-09-18T03:58:42.391Z,95811.78
2018-09-18T04:01:12.059Z,95807.05
2018-09-18T04:03:41.975Z,95808.90
2018-09-18T04:06:11.548Z,95804.70
2018-09-18T04:08:41.390Z,95812.62
2018-09-18T04:11:10.877Z,95817.34
2018-09-18T04:13:40.275Z,95815.48
2018-09-18T04:16:10.480Z,95817.59
2018-09-18T04:18:40.086Z,95819.44
2018-09-18T04:21:09.821Z,95828.38
2018-09-18T04:23:39.405Z,95822.88
2018-09-18T04:26:08.820Z,95830.30
2018-09-18T04:28:38.420Z,95829.48
2018-09-18T04:31:08.522Z,95831.08
2018-09-18T04:33:37.953Z,95833.13
2018-09-18T04:36:07.335Z,95833.67
2018-09-18T04:38:36.801Z,95833.66
2018-09-18T04:41:06.773Z,95845.55
2018-09-18T04:43:36.386Z,95842.12
2018-09-18T04:46:06.396Z,95847.66
2018-09-18T04:48:37.254Z,95851.64
2018-09-18T04:51:07.108Z,95850.34
2018-09-18T04:53:36.665Z,95853.52
2018-09-18T04:56:06.486Z,95854.59
2018-09-18T04:58:36.083Z,95852.20
2018-09-18T05:01:05.784Z,95859.88
2018-09-18T05:03:35.363Z,95865.17
2018-09-18T05:06:05.209Z,95863.60
2018-09-18T05:08:34.851Z,95870.71
2018-09-18T05:11:04.469Z,95873.09
2018-09-18T05:13:34.341Z,95873.62
2018-09-18T05:16:04.059Z,95874.17
2018-09-18T05:18:33.681Z,95871.55
2018-09-18T05:21:03.347Z,95869.97
2018-09-18T05:23:32.842Z,95800.44
2018-09-18T05:26:02.601Z,95870.28
2018-09-18T05:28:32.330Z,95866.84
2018-09-18T05:31:01.701Z,95871.34
2018-09-18T05:33:33.857Z,95874.50
2018-09-18T05:36:03.803Z,95869.52
2018-09-18T05:38:33.427Z,95871.09
2018-09-18T05:41:03.058Z,95868.98
2018-09-18T05:43:32.639Z,95874.27
2018-09-18T05:46:02.121Z,95875.84
2018-09-18T05:48:33.818Z,95877.18
2018-09-18T05:51:03.604Z,95886.45
2018-09-18T05:53:33.108Z,95878.52
2018-09-18T05:56:02.991Z,95882.20
2018-09-18T05:58:32.319Z,95883.78
2018-09-18T06:01:02.118Z,95881.14
2018-09-18T06:03:31.479Z,95883.25
2018-09-18T06:06:01.041Z,95888.55
2018-09-18T06:08:30.414Z,95887.71
2018-09-18T06:11:00.575Z,95891.19
2018-09-18T06:13:29.911Z,95884.03
2018-09-18T06:15:59.677Z,95890.06
2018-09-18T06:18:29.305Z,95883.67
2018-09-18T06:20:58.901Z,95885.77
2018-09-18T06:23:28.350Z,95889.15
2018-09-18T06:25:58.141Z,95892.59
2018-09-18T06:28:27.567Z,95888.90
2018-09-18T06:30:57.126Z,95881.17
2018-09-18T06:33:27.274Z,95894.94
2018-09-18T06:35:57.055Z,95883.44
2018-09-18T06:38:26.473Z,95877.82
2018-09-18T06:40:56.158Z,95887.00
2018-09-18T06:43:25.784Z,95879.38
2018-09-18T06:45:55.685Z,95876.73
2018-09-18T06:48:25.445Z,95874.48
2018-09-18T06:50:55.123Z,95870.80
2018-09-18T06:53:24.621Z,95867.87
2018-09-18T06:55:54.202Z,95871.88
2018-09-18T06:58:23.525Z,95875.01
2018-09-18T07:00:53.222Z,95865.94
2018-09-18T07:03:22.879Z,95870.06
2018-09-18T07:05:52.445Z,95868.84
2018-09-18T07:08:22.233Z,95866.98
2018-09-18T07:10:51.906Z,95868.72
2018-09-18T07:13:21.373Z,95869.25
2018-09-18T07:15:51.160Z,95866.77
2018-09-18T07:18:21.422Z,95871.60
2018-09-18T07:20:51.377Z,95831.99
2018-09-18T07:23:21.132Z,95871.48
2018-09-18T07:25:51.086Z,95872.11
2018-09-18T07:28:20.568Z,95869.82
2018-09-18T07:30:50.069Z,95863.45
2018-09-18T07:33:19.910Z,95866.66
2018-09-18T07:35:49.483Z,95865.16
2018-09-18T07:38:18.741Z,95863.04
2018-09-18T07:40:48.762Z,95865.70
2018-09-18T07:43:18.273Z,95868.25
2018-09-18T07:45:48.001Z,95865.21
2018-09-18T07:48:18.077Z,95862.25
2018-09-18T07:50:47.591Z,95860.22
2018-09-18T07:53:17.075Z,95858.94
2018-09-18T07:55:46.824Z,95859.86
2018-09-18T07:58:18.008Z,95850.21
2018-09-18T08:00:47.552Z,95851.60
2018-09-18T08:03:18.282Z,95845.39
2018-09-18T08:05:47.987Z,95842.20
2018-09-18T08:08:17.910Z,95845.83
2018-09-18T08:10:47.331Z,95840.66
2018-09-18T08:13:16.903Z,95843.97
2018-09-18T08:15:46.634Z,95834.98
2018-09-18T08:18:16.034Z,95836.91
2018-09-18T08:20:45.413Z,95837.17
2018-09-18T08:23:15.099Z,95840.48
2018-09-18T08:25:44.804Z,95841.17
2018-09-18T08:28:14.343Z,95836.01
2018-09-18T08:30:43.873Z,95833.02
2018-09-18T08:33:13.697Z,95833.17
2018-09-18T08:35:43.377Z,95828.53
2018-09-18T08:38:13.052Z,95827.29
2018-09-18T08:40:42.499Z,95834.26
2018-09-18T08:43:12.078Z,95828.66
2018-09-18T08:45:42.246Z,95823.28
2018-09-18T08:48:12.029Z,95821.99
2018-09-18T08:50:41.797Z,95816.67
2018-09-18T08:53:12.140Z,95813.49
2018-09-18T08:55:41.795Z,95815.89
2018-09-18T08:58:11.401Z,95813.06
2018-09-18T09:00:40.982Z,95808.95
2018-09-18T09:03:10.690Z,95808.02
2018-09-18T09:05:40.224Z,95806.18
2018-09-18T09:08:10.000Z,95807.65
2018-09-18T09:10:39.607Z,95804.48
2018-09-18T09:13:09.094Z,95800.33
2018-09-18T09:15:39.200Z,95802.78
2018-09-18T09:18:08.830Z,95793.44
2018-09-18T09:20:38.670Z,95792.92
2018-09-18T09:23:08.739Z,95794.10
2018-09-18T09:25:38.248Z,95800.89
2018-09-18T09:28:07.718Z,95793.55
2018-09-18T09:30:37.803Z,95790.66
2018-09-18T09:33:07.362Z,95786.87
2018-09-18T09:35:36.752Z,95782.86
2018-09-18T09:38:06.905Z,95780.84
2018-09-18T09:40:36.676Z,95783.38
2018-09-18T09:43:06.492Z,95771.63
2018-09-18T09:45:36.786Z,95771.31
2018-09-18T09:48:06.547Z,95766.91
2018-09-18T09:50:36.034Z,95763.87
2018-09-18T09:53:06.125Z,95759.16
2018-09-18T09:55:35.753Z,95758.66
2018-09-18T09:58:05.554Z,95760.48
2018-09-18T10:00:41.387Z,95755.47
2018-09-18T10:03:10.724Z,95761.42
2018-09-18T10:05:40.192Z,95753.98
2018-09-18T10:08:09.865Z,95744.34
2018-09-18T10:10:39.286Z,95743.03
2018-09-18T10:13:08.653Z,95740.94
2018-09-18T10:15:38.309Z,95740.61
2018-09-18T10:18:07.855Z,95737.50
2018-09-18T10:20:37.380Z,95730.45
2018-09-18T10:23:07.216Z,95738.16
2018-09-18T10:25:36.828Z,95730.20
2018-09-18T10:28:06.487Z,95730.81
2018-09-18T10:30:36.320Z,95727.73
2018-09-18T10:33:06.027Z,95721.23
2018-09-18T10:35:35.484Z,95726.66
2018-09-18T10:38:05.264Z,95718.45
2018-09-18T10:40:34.876Z,95717.40
2018-09-18T10:43:04.346Z,95715.53
2018-09-18T10:45:33.982Z,95707.49
2018-09-18T10:48:03.379Z,95710.20
2018-09-18T10:50:32.893Z,95710.06
2018-09-18T10:53:02.317Z,95701.89
2018-09-18T10:55:31.943Z,95699.43
2018-09-18T10:58:01.511Z,95699.00
2018-09-18T11:00:31.344Z,95692.76
2018-09-18T11:03:01.050Z,95693.52
2018-09-18T11:05:30.544Z,95690.55
2018-09-18T11:08:00.269Z,95682.73
2018-09-18T11:10:29.785Z,95680.05
2018-09-18T11:12:59.535Z,95675.56
2018-09-18T11:15:28.922Z,95672.84
2018-09-18T11:18:01.187Z,95675.83
2018-09-18T11:20:30.589Z,95665.81
2018-09-18T11:23:00.455Z,95670.23
2018-09-18T11:25:29.718Z,95666.34
2018-09-18T11:27:59.525Z,95665.53
2018-09-18T11:30:28.983Z,95657.17
2018-09-18T11:32:58.665Z,95655.09
2018-09-18T11:35:28.419Z,95644.47
2018-09-18T11:37:57.983Z,95655.63
2018-09-18T11:40:27.736Z,95645.29
2018-09-18T11:42:57.766Z,95638.84
2018-09-18T11:45:27.541Z,95640.02
2018-09-18T11:47:57.090Z,95636.77
2018-09-18T11:50:27.004Z,95636.67
2018-09-18T11:52:56.518Z,95631.57
2018-09-18T11:55:25.917Z,95634.52
2018-09-18T11:57:55.608Z,95626.72
2018-09-18T12:00:25.109Z,95628.71
2018-09-18T12:02:54.929Z,95623.61
2018-09-18T12:05:25.032Z,95624.73
2018-09-18T12:07:54.442Z,95622.63
2018-09-18T12:10:24.055Z,95611.40
2018-09-18T12:12:53.715Z,95616.14
2018-09-18T12:15:23.152Z,95620.50
2018-09-18T12:17:52.878Z,95617.16
2018-09-18T12:20:22.595Z,95614.92
2018-09-18T12:22:52.520Z,95615.34
2018-09-18T12:25:22.038Z,95608.69
2018-09-18T12:27:51.936Z,95603.98
2018-09-18T12:30:21.725Z,95607.47
2018-09-18T12:32:51.691Z,95606.93
2018-09-18T12:35:22.124Z,95602.96
2018-09-18T12:37:51.988Z,95601.00
2018-09-18T12:40:21.595Z,95599.55
2018-09-18T12:42:51.524Z,95604.66
2018-09-18T12:45:21.215Z,95595.87
2018-09-18T12:47:50.876Z,95592.00
2018-09-18T12:50:20.627Z,95586.92
2018-09-18T12:52:50.370Z,95587.04
2018-09-18T12:55:19.907Z,95580.88
2018-09-18T12:57:49.691Z,95576.34
2018-09-18T13:00:19.100Z,95575.55
2018-09-18T13:02:48.738Z,95571.98
2018-09-18T13:05:18.177Z,95572.12
2018-09-18T13:07:47.952Z,95564.06
2018-09-18T13:10:17.709Z,95565.64
2018-09-18T13:12:47.670Z,95565.34
2018-09-18T13:15:17.050Z,95560.92
2018-09-18T13:17:46.667Z,95557.81
2018-09-18T13:20:16.681Z,95557.01
2018-09-18T13:22:46.029Z,95565.17
2018-09-18T13:25:15.571Z,95550.25
2018-09-18T13:27:45.252Z,95546.05
2018-09-18T13:30:14.731Z,95547.01
2018-09-18T13:32:44.508Z,95547.19
2018-09-18T13:35:14.125Z,95543.39
2018-09-18T13:37:43.618Z,95539.89
2018-09-18T13:40:13.172Z,95540.45
2018-09-18T13:42:42.615Z,95542.00
2018-09-18T13:45:12.517Z,95537.28
2018-09-18T13:47:42.022Z,95543.15
2018-09-18T13:50:11.956Z,95536.45
2018-09-18T13:52:41.573Z,95534.37
2018-09-18T13:55:11.403Z,95536.16
2018-09-18T14:00:13.895Z,95541.90
2018-09-18T14:02:43.292Z,95540.77
2018-09-18T14:05:12.830Z,95543.72
2018-09-18T14:07:42.754Z,95538.27
2018-09-18T14:10:14.128Z,95538.03
2018-09-18T14:12:43.590Z,95534.22
2018-09-18T14:15:13.239Z,95537.20
2018-09-18T14:17:42.681Z,95533.36
2018-09-18T14:20:12.205Z,95529.47
2018-09-18T14:22:41.508Z,95528.14
2018-09-18T14:25:11.147Z,95527.87
2018-09-18T14:27:41.169Z,95531.69
2018-09-18T14:30:11.160Z,95530.75
2018-09-18T14:32:40.711Z,95529.77
2018-09-18T14:35:10.827Z,95534.64
2018-09-18T14:37:40.579Z,95530.87
2018-09-18T14:40:10.162Z,95531.35
2018-09-18T14:42:40.068Z,95528.57
2018-09-18T14:45:09.500Z,95532.11
2018-09-18T14:47:38.902Z,95539.70
2018-09-18T14:50:08.714Z,95545.88
2018-09-18T14:52:38.167Z,95543.58
2018-09-18T14:55:08.024Z,95546.81
2018-09-18T14:57:37.758Z,95547.41
2018-09-18T15:00:07.396Z,95545.60
2018-09-18T15:02:36.853Z,95547.82
2018-09-18T15:05:06.707Z,95555.44
2018-09-18T15:07:36.470Z,95548.42
2018-09-18T15:10:06.286Z,95552.67
2018-09-18T15:12:36.420Z,95553.14
2018-09-18T15:15:06.278Z,95552.41
2018-09-18T15:17:35.634Z,95550.44
2018-09-18T15:20:05.578Z,95554.69
2018-09-18T15:22:35.160Z,95557.89
2018-09-18T15:25:04.457Z,95553.78
2018-09-18T15:27:33.772Z,95557.55
2018-09-18T15:30:03.679Z,95562.32
2018-09-18T15:32:33.387Z,95565.45
2018-09-18T15:35:02.833Z,95567.77
2018-09-18T15:37:32.296Z,95563.85
2018-09-18T15:40:01.883Z,95564.34
2018-09-18T15:42:31.607Z,95569.00
2018-09-18T15:45:01.027Z,95569.80
2018-09-18T15:47:30.600Z,95575.73
2018-09-18T15:50:00.673Z,95575.41
2018-09-18T15:52:30.161Z,95576.38
2018-09-18T15:55:00.142Z,95576.64
2018-09-18T15:57:29.821Z,95572.78
2018-09-18T16:00:00.730Z,95574.56
2018-09-18T16:02:30.238Z,95575.13
2018-09-18T16:04:59.991Z,95574.58
2018-09-18T16:07:29.436Z,95584.06
2018-09-18T16:09:59.478Z,95586.19
2018-09-18T16:12:28.925Z,95587.67
2018-09-18T16:14:58.492Z,95584.98
2018-09-18T16:17:28.349Z,95584.33
2018-09-18T16:19:58.088Z,95587.71
2018-09-18T16:22:27.718Z,95580.34
2018-09-18T16:24:57.349Z,95590.16
2018-09-18T16:27:27.274Z,95590.03
2018-09-18T16:29:57.137Z,95587.87
2018-09-18T16:32:27.136Z,95597.83
2018-09-18T16:34:56.659Z,95595.69
2018-09-18T16:37:26.083Z,95598.36
2018-09-18T16:39:55.801Z,95599.20
2018-09-18T16:42:25.529Z,95602.44
2018-09-18T16:44:55.085Z,95601.85
2018-09-18T16:47:24.730Z,95608.59
2018-09-18T16:49:54.255Z,95602.22
2018-09-18T16:52:24.118Z,95605.48
2018-09-18T16:54:54.094Z,95615.25
2018-09-18T16:59:51.631Z,95612.57
2018-09-18T17:02:21.493Z,95618.67
2018-09-18T17:04:50.896Z,95619.03
2018-09-18T17:07:20.359Z,95620.72
2018-09-18T17:09:49.990Z,95625.04
2018-09-18T17:12:19.759Z,95625.48
2018-09-18T17:14:49.544Z,95622.22
2018-09-18T17:17:19.324Z,95630.26
2018-09-18T17:19:48.888Z,95630.15
2018-09-18T17:22:18.523Z,95631.20
2018-09-18T17:24:47.628Z,95632.97
2018-09-18T17:27:22.697Z,95633.70
2018-09-18T17:29:58.006Z,95642.72
2018-09-18T17:32:27.179Z,95638.13
2018-09-18T17:34:56.179Z,95645.77
2018-09-18T17:37:25.538Z,95647.45
2018-09-18T17:39:54.423Z,95651.06
2018-09-18T17:42:23.437Z,95652.55
2018-09-18T17:44:59.599Z,95652.92
2018-09-18T17:47:35.006Z,95659.91
2018-09-18T17:50:04.221Z,95661.98
2018-09-18T17:52:33.052Z,95655.36
2018-09-18T17:55:02.070Z,95659.29
2018-09-18T17:57:31.513Z,95666.77
2018-09-18T18:00:00.920Z,95666.05
2018-09-18T18:02:30.584Z,95663.44
2018-09-18T18:05:00.645Z,95670.61
2018-09-18T18:07:30.350Z,95673.59
2018-09-18T18:09:59.733Z,95675.20
2018-09-18T18:12:29.557Z,95681.06
2018-09-18T18:14:59.138Z,95684.47
2018-09-18T18:17:28.678Z,95679.39
2018-09-18T18:19:58.569Z,95684.27
2018-09-18T18:22:28.001Z,95689.48
2018-09-18T18:24:57.746Z,95685.27
2018-09-18T18:27:27.484Z,95690.59
2018-09-18T18:29:56.999Z,95690.14
2018-09-18T18:32:26.407Z,95691.66
2018-09-18T18:34:56.147Z,95700.30
2018-09-18T18:37:25.511Z,95689.46
2018-09-18T18:39:55.034Z,95697.72
2018-09-18T18:42:24.875Z,95693.05
2018-09-18T18:44:54.455Z,95695.45
2018-09-18T18:47:23.952Z,95692.38
2018-09-18T18:49:53.528Z,95697.45
2018-09-18T18:52:23.280Z,95695.94
2018-09-18T18:54:52.858Z,95700.55
2018-09-18T18:57:22.887Z,95689.89
2018-09-18T18:59:52.543Z,95696.91
2018-09-18T19:02:22.375Z,95704.54
2018-09-18T19:04:52.245Z,95704.98
2018-09-18T19:07:22.199Z,95704.98
2018-09-18T19:09:51.637Z,95705.63
2018-09-18T19:12:21.886Z,95705.94
2018-09-18T19:14:51.722Z,95709.32
2018-09-18T19:17:21.350Z,95708.45
2018-09-18T19:19:51.361Z,95673.19
2018-09-18T19:22:21.115Z,95706.70
2018-09-18T19:24:51.091Z,95704.95
2018-09-18T19:27:20.995Z,95711.23
2018-09-18T19:29:50.635Z,95706.93
2018-09-18T19:32:20.420Z,95703.31
2018-09-18T19:34:50.583Z,95704.19
2018-09-18T19:37:20.149Z,95702.86
2018-09-18T19:39:49.849Z,95704.83
2018-09-18T19:42:20.104Z,95707.58
2018-09-18T19:44:49.711Z,95707.30
2018-09-18T19:47:19.479Z,95714.14
2018-09-18T19:49:49.294Z,95714.75
2018-09-18T19:52:18.849Z,95709.81
2018-09-18T19:54:48.515Z,95709.23
2018-09-18T19:57:18.140Z,95710.72
2018-09-18T19:59:47.849Z,95712.09
2018-09-18T20:02:17.300Z,95712.19
2018-09-18T20:04:47.372Z,95714.12
2018-09-18T20:07:17.411Z,95709.41
2018-09-18T20:09:47.087Z,95717.13
2018-09-18T20:12:16.983Z,95720.69
2018-09-18T20:14:46.873Z,95721.19
2018-09-18T20:17:16.248Z,95720.55
2018-09-18T20:19:45.948Z,95731.66
2018-09-18T20:22:15.780Z,95736.27
2018-09-18T20:24:45.357Z,95740.34
2018-09-18T20:27:14.929Z,95743.09
2018-09-18T20:29:44.746Z,95738.09
2018-09-18T20:32:14.333Z,95744.48
2018-09-18T20:34:44.670Z,95742.19
2018-09-18T20:37:14.396Z,95744.66
2018-09-18T20:39:44.892Z,95743.98
2018-09-18T20:42:14.860Z,95751.87
2018-09-18T20:44:44.389Z,95743.32
2018-09-18T20:47:14.060Z,95745.34
2018-09-18T20:49:44.019Z,95746.56
2018-09-18T20:52:13.460Z,95744.03
2018-09-18T20:54:43.415Z,95749.30
2018-09-18T20:57:13.559Z,95753.17
2018-09-18T20:59:43.117Z,95754.72
2018-09-18T21:02:13.135Z,95759.31
2018-09-18T21:04:43.292Z,95758.72
2018-09-18T21:07:13.256Z,95757.07
2018-09-18T21:09:43.091Z,95756.52
2018-09-18T21:12:12.961Z,95757.03
2018-09-18T21:14:42.396Z,95759.61
2018-09-18T21:17:12.177Z,95764.48
2018-09-18T21:19:42.346Z,95762.08
2018-09-18T21:22:12.399Z,95763.41
2018-09-18T21:24:42.267Z,95767.77
2018-09-18T21:27:12.602Z,95764.07
2018-09-18T21:29:42.301Z,95766.66
2018-09-18T21:32:11.821Z,95751.09
2018-09-18T21:34:41.668Z,95757.20
2018-09-18T21:37:11.649Z,95760.88
2018-09-18T21:39:41.554Z,95758.53
2018-09-18T21:42:11.509Z,95757.80
2018-09-18T21:44:41.429Z,95760.36
2018-09-18T21:47:11.041Z,95759.30
2018-09-18T21:49:41.386Z,95762.53
2018-09-18T21:52:11.069Z,95753.50
2018-09-18T21:54:40.854Z,95756.37
2018-09-18T21:57:10.455Z,95762.11
2018-09-18T21:59:40.016Z,95763.81
2018-09-18T22:02:09.412Z,95765.72
2018-09-18T22:04:39.116Z,95763.81
2018-09-18T22:07:08.778Z,95766.59
2018-09-18T22:09:38.342Z,95767.11
2018-09-18T22:12:09.159Z,95763.45
2018-09-18T22:14:39.042Z,95761.56
2018-09-18T22:17:08.337Z,95762.94
2018-09-18T22:19:38.144Z,95766.13
2018-09-18T22:22:07.856Z,95764.79
2018-09-18T22:24:37.641Z,95762.66
2018-09-18T22:27:07.632Z,95767.81
2018-09-18T22:29:37.444Z,95767.05
2018-09-18T22:32:07.125Z,95767.30
2018-09-18T22:34:36.901Z,95763.80
2018-09-18T22:37:06.434Z,95763.36
2018-09-18T22:39:35.861Z,95774.07
2018-09-18T22:42:05.632Z,95775.64
2018-09-18T22:44:37.724Z,95766.89
2018-09-18T22:47:07.475Z,95765.92
2018-09-18T22:49:38.079Z,95771.80
2018-09-18T22:52:07.645Z,95772.56
2018-09-18T22:54:37.444Z,95772.05
2018-09-18T22:57:06.911Z,95772.75
2018-09-18T22:59:36.399Z,95770.66
2018-09-18T23:02:06.474Z,95771.24
2018-09-18T23:04:36.052Z,95780.75
2018-09-18T23:07:05.693Z,95779.16
2018-09-18T23:09:35.788Z,95778.91
2018-09-18T23:12:05.235Z,95779.95
2018-09-18T23:14:34.604Z,95777.36
2018-09-18T23:17:04.585Z,95779.48
2018-09-18T23:19:34.106Z,95781.09
2018-09-18T23:22:03.805Z,95779.52
2018-09-18T23:24:33.923Z,95791.17
2018-09-18T23:27:03.535Z,95790.91
2018-09-18T23:29:33.148Z,95790.61
2018-09-18T23:32:03.188Z,95790.12
2018-09-18T23:34:32.567Z,95793.81
2018-09-18T23:37:02.483Z,95793.03
2018-09-18T23:39:32.118Z,95796.73
2018-09-18T23:42:01.623Z,95800.23
2018-09-18T23:44:31.002Z,95799.14
2018-09-18T23:47:01.157Z,95800.73
2018-09-18T23:49:30.517Z,95801.27
2018-09-18T23:52:00.042Z,95799.17
2018-09-18T23:54:29.899Z,95793.63
2018-09-18T23:56:59.549Z,95801.01
2018-09-18T23:59:29.075Z,95799.70
